sensor_id;sensor_type;location;lat;lon;timestamp;temperature;humidity
37158;DHT22;23050;51.776;22.638;2022-08-03T00:01:38;16.70;99.90
37158;DHT22;23050;51.776;22.638;2022-08-03T00:04:05;16.80;99.90
37158;DHT22;23050;51.776;22.638;2022-08-03T00:06:31;16.80;99.90
37158;DHT22;23050;51.776;22.638;2022-08-03T00:08:57;16.80;99.90
37158;DHT22;23050;51.776;22.638;2022-08-03T00:11:23;16.90;99.90
37158;DHT22;23050;51.776;22.638;2022-08-03T00:13:49;16.90;99.90
37158;DHT22;23050;51.776;22.638;2022-08-03T00:16:15;16.90;99.90
37158;DHT22;23050;51.776;22.638;2022-08-03T00:18:41;16.90;99.90
37158;DHT22;23050;51.776;22.638;2022-08-03T00:21:06;16.90;99.90
37158;DHT22;23050;51.776;22.638;2022-08-03T00:23:33;17.00;99.90
37158;DHT22;23050;51.776;22.638;2022-08-03T00:25:59;16.90;99.90
37158;DHT22;23050;51.776;22.638;2022-08-03T00:28:25;16.90;99.90
37158;DHT22;23050;51.776;22.638;2022-08-03T00:30:50;16.90;99.90
37158;DHT22;23050;51.776;22.638;2022-08-03T00:33:16;16.90;99.90
37158;DHT22;23050;51.776;22.638;2022-08-03T00:35:42;16.90;99.90
37158;DHT22;23050;51.776;22.638;2022-08-03T00:38:07;16.80;99.90
37158;DHT22;23050;51.776;22.638;2022-08-03T00:40:33;16.80;99.90
37158;DHT22;23050;51.776;22.638;2022-08-03T00:43:01;16.80;99.90
37158;DHT22;23050;51.776;22.638;2022-08-03T00:45:30;16.70;99.90
37158;DHT22;23050;51.776;22.638;2022-08-03T00:47:57;16.70;99.90
37158;DHT22;23050;51.776;22.638;2022-08-03T00:50:24;16.70;99.90
37158;DHT22;23050;51.776;22.638;2022-08-03T00:52:52;16.70;99.90
37158;DHT22;23050;51.776;22.638;2022-08-03T00:55:18;16.70;99.90
37158;DHT22;23050;51.776;22.638;2022-08-03T00:57:44;16.60;99.90
37158;DHT22;23050;51.776;22.638;2022-08-03T01:00:12;16.70;99.90
37158;DHT22;23050;51.776;22.638;2022-08-03T01:02:39;16.80;99.90
37158;DHT22;23050;51.776;22.638;2022-08-03T01:05:06;16.80;99.90
37158;DHT22;23050;51.776;22.638;2022-08-03T01:12:47;16.80;99.90
37158;DHT22;23050;51.776;22.638;2022-08-03T01:15:45;16.80;99.90
37158;DHT22;23050;51.776;22.638;2022-08-03T01:21:28;16.90;99.90
37158;DHT22;23050;51.776;22.638;2022-08-03T01:24:04;16.80;99.90
37158;DHT22;23050;51.776;22.638;2022-08-03T01:32:02;16.70;99.90
37158;DHT22;23050;51.776;22.638;2022-08-03T01:34:32;16.70;99.90
37158;DHT22;23050;51.776;22.638;2022-08-03T01:37:01;16.60;99.90
37158;DHT22;23050;51.776;22.638;2022-08-03T01:39:28;16.60;99.90
37158;DHT22;23050;51.776;22.638;2022-08-03T01:41:59;16.50;99.90
37158;DHT22;23050;51.776;22.638;2022-08-03T01:44:29;16.50;99.90
37158;DHT22;23050;51.776;22.638;2022-08-03T01:46:59;16.50;99.90
37158;DHT22;23050;51.776;22.638;2022-08-03T01:49:28;16.40;99.90
37158;DHT22;23050;51.776;22.638;2022-08-03T01:51:55;16.30;99.90
37158;DHT22;23050;51.776;22.638;2022-08-03T01:54:22;16.30;99.90
37158;DHT22;23050;51.776;22.638;2022-08-03T01:56:51;16.30;99.90
37158;DHT22;23050;51.776;22.638;2022-08-03T01:59:18;16.20;99.90
37158;DHT22;23050;51.776;22.638;2022-08-03T02:01:45;16.20;99.90
37158;DHT22;23050;51.776;22.638;2022-08-03T02:04:14;16.10;99.90
37158;DHT22;23050;51.776;22.638;2022-08-03T02:06:42;16.10;99.90
37158;DHT22;23050;51.776;22.638;2022-08-03T02:09:10;16.00;99.90
37158;DHT22;23050;51.776;22.638;2022-08-03T02:11:37;16.00;99.90
37158;DHT22;23050;51.776;22.638;2022-08-03T02:14:04;15.90;99.90
37158;DHT22;23050;51.776;22.638;2022-08-03T02:16:32;15.80;99.90
37158;DHT22;23050;51.776;22.638;2022-08-03T02:19:00;15.70;99.90
37158;DHT22;23050;51.776;22.638;2022-08-03T02:21:28;15.70;99.90
37158;DHT22;23050;51.776;22.638;2022-08-03T02:23:54;15.70;99.90
37158;DHT22;23050;51.776;22.638;2022-08-03T02:26:21;15.60;99.90
37158;DHT22;23050;51.776;22.638;2022-08-03T02:28:51;15.60;99.90
37158;DHT22;23050;51.776;22.638;2022-08-03T02:31:21;15.50;99.90
37158;DHT22;23050;51.776;22.638;2022-08-03T02:33:50;15.50;99.90
37158;DHT22;23050;51.776;22.638;2022-08-03T02:36:27;15.40;99.90
37158;DHT22;23050;51.776;22.638;2022-08-03T02:38:56;15.40;99.90
37158;DHT22;23050;51.776;22.638;2022-08-03T02:41:28;15.30;99.90
37158;DHT22;23050;51.776;22.638;2022-08-03T02:43:55;15.30;99.90
37158;DHT22;23050;51.776;22.638;2022-08-03T02:46:24;15.30;99.90
37158;DHT22;23050;51.776;22.638;2022-08-03T02:48:53;15.20;99.90
37158;DHT22;23050;51.776;22.638;2022-08-03T02:51:20;15.20;99.90
37158;DHT22;23050;51.776;22.638;2022-08-03T02:53:47;15.10;99.90
37158;DHT22;23050;51.776;22.638;2022-08-03T02:56:13;15.10;99.90
37158;DHT22;23050;51.776;22.638;2022-08-03T02:58:42;15.10;99.90
37158;DHT22;23050;51.776;22.638;2022-08-03T03:01:10;15.00;99.90
37158;DHT22;23050;51.776;22.638;2022-08-03T03:03:37;15.10;99.90
37158;DHT22;23050;51.776;22.638;2022-08-03T03:06:05;15.00;99.90
37158;DHT22;23050;51.776;22.638;2022-08-03T03:08:31;15.00;99.90
37158;DHT22;23050;51.776;22.638;2022-08-03T03:10:59;15.00;99.90
37158;DHT22;23050;51.776;22.638;2022-08-03T03:13:27;15.00;99.90
37158;DHT22;23050;51.776;22.638;2022-08-03T03:15:53;15.00;99.90
37158;DHT22;23050;51.776;22.638;2022-08-03T03:18:20;14.90;99.90
37158;DHT22;23050;51.776;22.638;2022-08-03T03:20:48;14.90;99.90
37158;DHT22;23050;51.776;22.638;2022-08-03T03:23:15;14.90;99.90
37158;DHT22;23050;51.776;22.638;2022-08-03T03:25:42;15.00;99.90
37158;DHT22;23050;51.776;22.638;2022-08-03T03:28:09;15.00;99.90
37158;DHT22;23050;51.776;22.638;2022-08-03T03:30:35;15.00;99.90
37158;DHT22;23050;51.776;22.638;2022-08-03T03:33:01;15.10;99.90
37158;DHT22;23050;51.776;22.638;2022-08-03T03:35:27;15.20;99.90
37158;DHT22;23050;51.776;22.638;2022-08-03T03:37:53;15.30;99.90
37158;DHT22;23050;51.776;22.638;2022-08-03T03:40:19;15.30;99.90
37158;DHT22;23050;51.776;22.638;2022-08-03T03:42:44;15.40;99.90
37158;DHT22;23050;51.776;22.638;2022-08-03T03:45:11;15.50;99.90
37158;DHT22;23050;51.776;22.638;2022-08-03T03:47:37;15.50;99.90
37158;DHT22;23050;51.776;22.638;2022-08-03T03:50:04;15.60;99.90
37158;DHT22;23050;51.776;22.638;2022-08-03T03:52:31;15.60;99.90
37158;DHT22;23050;51.776;22.638;2022-08-03T03:54:57;15.70;99.90
37158;DHT22;23050;51.776;22.638;2022-08-03T03:57:22;15.70;99.90
37158;DHT22;23050;51.776;22.638;2022-08-03T03:59:48;15.70;99.90
37158;DHT22;23050;51.776;22.638;2022-08-03T04:02:13;15.80;99.90
37158;DHT22;23050;51.776;22.638;2022-08-03T04:04:39;15.80;99.90
37158;DHT22;23050;51.776;22.638;2022-08-03T04:07:25;15.90;99.90
37158;DHT22;23050;51.776;22.638;2022-08-03T04:10:14;15.90;99.90
37158;DHT22;23050;51.776;22.638;2022-08-03T04:13:01;16.10;99.90
37158;DHT22;23050;51.776;22.638;2022-08-03T04:15:30;16.10;99.90
37158;DHT22;23050;51.776;22.638;2022-08-03T04:17:58;16.30;99.90
37158;DHT22;23050;51.776;22.638;2022-08-03T04:20:28;16.30;99.90
37158;DHT22;23050;51.776;22.638;2022-08-03T04:22:55;16.40;99.90
37158;DHT22;23050;51.776;22.638;2022-08-03T04:25:27;16.60;99.90
37158;DHT22;23050;51.776;22.638;2022-08-03T04:27:55;16.70;99.90
37158;DHT22;23050;51.776;22.638;2022-08-03T04:30:24;16.90;99.90
37158;DHT22;23050;51.776;22.638;2022-08-03T04:32:50;17.00;99.90
37158;DHT22;23050;51.776;22.638;2022-08-03T04:35:17;17.00;99.90
37158;DHT22;23050;51.776;22.638;2022-08-03T04:37:47;17.10;99.90
37158;DHT22;23050;51.776;22.638;2022-08-03T04:40:17;17.20;99.90
37158;DHT22;23050;51.776;22.638;2022-08-03T04:42:45;17.30;99.90
37158;DHT22;23050;51.776;22.638;2022-08-03T04:45:12;17.50;99.90
37158;DHT22;23050;51.776;22.638;2022-08-03T04:47:39;17.70;99.90
37158;DHT22;23050;51.776;22.638;2022-08-03T04:50:05;17.80;99.90
37158;DHT22;23050;51.776;22.638;2022-08-03T04:52:33;18.00;99.90
37158;DHT22;23050;51.776;22.638;2022-08-03T04:54:59;18.20;99.90
37158;DHT22;23050;51.776;22.638;2022-08-03T04:57:24;18.40;99.90
37158;DHT22;23050;51.776;22.638;2022-08-03T04:59:51;18.60;99.90
37158;DHT22;23050;51.776;22.638;2022-08-03T05:02:21;18.80;99.90
37158;DHT22;23050;51.776;22.638;2022-08-03T05:04:47;19.00;99.90
37158;DHT22;23050;51.776;22.638;2022-08-03T05:07:14;19.10;99.90
37158;DHT22;23050;51.776;22.638;2022-08-03T05:09:40;19.20;99.90
37158;DHT22;23050;51.776;22.638;2022-08-03T05:12:06;19.40;99.90
37158;DHT22;23050;51.776;22.638;2022-08-03T05:14:32;19.60;99.90
37158;DHT22;23050;51.776;22.638;2022-08-03T05:16:58;19.90;99.90
37158;DHT22;23050;51.776;22.638;2022-08-03T05:19:23;20.60;99.90
37158;DHT22;23050;51.776;22.638;2022-08-03T05:21:49;21.80;99.90
37158;DHT22;23050;51.776;22.638;2022-08-03T05:24:15;23.00;99.90
37158;DHT22;23050;51.776;22.638;2022-08-03T05:26:40;23.70;99.90
37158;DHT22;23050;51.776;22.638;2022-08-03T05:29:06;24.30;99.30
37158;DHT22;23050;51.776;22.638;2022-08-03T05:31:32;25.10;94.10
37158;DHT22;23050;51.776;22.638;2022-08-03T05:33:57;25.60;80.00
37158;DHT22;23050;51.776;22.638;2022-08-03T05:36:23;25.90;68.30
37158;DHT22;23050;51.776;22.638;2022-08-03T05:38:48;25.90;64.00
37158;DHT22;23050;51.776;22.638;2022-08-03T05:41:14;26.10;61.10
37158;DHT22;23050;51.776;22.638;2022-08-03T05:43:40;26.40;57.50
37158;DHT22;23050;51.776;22.638;2022-08-03T05:46:05;26.90;48.90
37158;DHT22;23050;51.776;22.638;2022-08-03T05:48:31;27.20;41.00
37158;DHT22;23050;51.776;22.638;2022-08-03T05:50:56;27.30;36.90
37158;DHT22;23050;51.776;22.638;2022-08-03T05:53:22;26.90;34.50
37158;DHT22;23050;51.776;22.638;2022-08-03T05:55:47;26.80;34.60
37158;DHT22;23050;51.776;22.638;2022-08-03T05:58:13;26.80;34.60
37158;DHT22;23050;51.776;22.638;2022-08-03T06:00:39;27.30;31.40
37158;DHT22;23050;51.776;22.638;2022-08-03T06:03:04;27.70;29.30
37158;DHT22;23050;51.776;22.638;2022-08-03T06:05:30;27.90;27.20
37158;DHT22;23050;51.776;22.638;2022-08-03T06:07:57;28.30;26.90
37158;DHT22;23050;51.776;22.638;2022-08-03T06:10:22;29.00;21.40
37158;DHT22;23050;51.776;22.638;2022-08-03T06:12:48;28.70;20.90
37158;DHT22;23050;51.776;22.638;2022-08-03T06:15:15;29.10;19.70
37158;DHT22;23050;51.776;22.638;2022-08-03T06:17:47;28.90;16.60
37158;DHT22;23050;51.776;22.638;2022-08-03T06:20:15;29.10;16.00
37158;DHT22;23050;51.776;22.638;2022-08-03T06:22:41;29.30;14.70
37158;DHT22;23050;51.776;22.638;2022-08-03T06:25:07;29.10;16.50
37158;DHT22;23050;51.776;22.638;2022-08-03T06:27:33;29.20;17.30
37158;DHT22;23050;51.776;22.638;2022-08-03T06:29:59;29.80;15.60
37158;DHT22;23050;51.776;22.638;2022-08-03T06:32:25;29.90;13.20
37158;DHT22;23050;51.776;22.638;2022-08-03T06:34:50;30.20;14.60
37158;DHT22;23050;51.776;22.638;2022-08-03T06:37:16;30.70;9.40
37158;DHT22;23050;51.776;22.638;2022-08-03T06:39:41;31.10;9.00
37158;DHT22;23050;51.776;22.638;2022-08-03T06:42:07;31.30;8.60
37158;DHT22;23050;51.776;22.638;2022-08-03T06:44:33;31.30;9.20
37158;DHT22;23050;51.776;22.638;2022-08-03T06:46:59;31.30;8.50
37158;DHT22;23050;51.776;22.638;2022-08-03T06:49:25;31.10;6.00
37158;DHT22;23050;51.776;22.638;2022-08-03T06:51:50;31.00;6.60
37158;DHT22;23050;51.776;22.638;2022-08-03T06:54:18;30.80;7.00
37158;DHT22;23050;51.776;22.638;2022-08-03T06:56:44;30.70;7.90
37158;DHT22;23050;51.776;22.638;2022-08-03T06:59:09;30.80;8.80
37158;DHT22;23050;51.776;22.638;2022-08-03T07:01:35;31.30;6.60
37158;DHT22;23050;51.776;22.638;2022-08-03T07:04:00;31.40;6.30
37158;DHT22;23050;51.776;22.638;2022-08-03T07:06:26;31.90;4.90
37158;DHT22;23050;51.776;22.638;2022-08-03T07:08:51;31.60;5.00
37158;DHT22;23050;51.776;22.638;2022-08-03T07:11:17;31.60;5.20
37158;DHT22;23050;51.776;22.638;2022-08-03T07:13:42;31.80;4.60
37158;DHT22;23050;51.776;22.638;2022-08-03T07:16:08;31.80;3.80
37158;DHT22;23050;51.776;22.638;2022-08-03T07:18:37;31.80;4.30
37158;DHT22;23050;51.776;22.638;2022-08-03T07:21:03;32.40;3.80
37158;DHT22;23050;51.776;22.638;2022-08-03T07:23:28;32.50;3.90
37158;DHT22;23050;51.776;22.638;2022-08-03T07:25:54;32.40;4.90
37158;DHT22;23050;51.776;22.638;2022-08-03T07:28:19;33.40;2.60
37158;DHT22;23050;51.776;22.638;2022-08-03T07:30:45;33.40;2.10
37158;DHT22;23050;51.776;22.638;2022-08-03T07:33:11;33.00;1.80
37158;DHT22;23050;51.776;22.638;2022-08-03T07:35:37;32.90;3.50
37158;DHT22;23050;51.776;22.638;2022-08-03T07:38:03;32.50;3.00
37158;DHT22;23050;51.776;22.638;2022-08-03T07:40:29;31.90;4.40
37158;DHT22;23050;51.776;22.638;2022-08-03T07:42:55;31.70;4.40
37158;DHT22;23050;51.776;22.638;2022-08-03T07:45:22;30.80;5.40
37158;DHT22;23050;51.776;22.638;2022-08-03T07:47:48;30.50;7.00
37158;DHT22;23050;51.776;22.638;2022-08-03T07:50:14;30.10;7.40
37158;DHT22;23050;51.776;22.638;2022-08-03T07:52:40;29.70;7.50
37158;DHT22;23050;51.776;22.638;2022-08-03T07:55:17;29.00;8.80
37158;DHT22;23050;51.776;22.638;2022-08-03T07:57:43;28.60;12.90
37158;DHT22;23050;51.776;22.638;2022-08-03T08:00:17;29.00;11.20
37158;DHT22;23050;51.776;22.638;2022-08-03T08:02:43;29.70;9.70
37158;DHT22;23050;51.776;22.638;2022-08-03T08:05:10;31.00;8.50
37158;DHT22;23050;51.776;22.638;2022-08-03T08:07:37;31.70;6.80
37158;DHT22;23050;51.776;22.638;2022-08-03T08:10:07;31.70;4.70
37158;DHT22;23050;51.776;22.638;2022-08-03T08:12:34;32.50;4.80
37158;DHT22;23050;51.776;22.638;2022-08-03T08:15:01;32.50;2.70
37158;DHT22;23050;51.776;22.638;2022-08-03T08:17:26;31.50;3.60
37158;DHT22;23050;51.776;22.638;2022-08-03T08:19:52;30.80;4.40
37158;DHT22;23050;51.776;22.638;2022-08-03T08:22:17;31.00;6.60
37158;DHT22;23050;51.776;22.638;2022-08-03T08:24:43;31.80;6.50
37158;DHT22;23050;51.776;22.638;2022-08-03T08:27:09;32.40;3.30
37158;DHT22;23050;51.776;22.638;2022-08-03T08:29:37;33.10;5.20
37158;DHT22;23050;51.776;22.638;2022-08-03T08:32:03;33.30;2.60
37158;DHT22;23050;51.776;22.638;2022-08-03T08:34:28;33.20;2.10
37158;DHT22;23050;51.776;22.638;2022-08-03T08:36:54;33.40;2.30
37158;DHT22;23050;51.776;22.638;2022-08-03T08:39:19;33.70;2.60
37158;DHT22;23050;51.776;22.638;2022-08-03T08:41:45;33.60;1.70
37158;DHT22;23050;51.776;22.638;2022-08-03T08:44:11;33.00;1.50
37158;DHT22;23050;51.776;22.638;2022-08-03T08:46:37;31.70;2.40
37158;DHT22;23050;51.776;22.638;2022-08-03T08:49:05;31.20;5.00
37158;DHT22;23050;51.776;22.638;2022-08-03T08:51:33;30.80;4.50
37158;DHT22;23050;51.776;22.638;2022-08-03T08:54:02;30.60;6.20
37158;DHT22;23050;51.776;22.638;2022-08-03T08:56:32;31.00;5.40
37158;DHT22;23050;51.776;22.638;2022-08-03T08:58:59;32.00;4.10
37158;DHT22;23050;51.776;22.638;2022-08-03T09:01:26;32.70;4.30
37158;DHT22;23050;51.776;22.638;2022-08-03T09:03:52;33.40;1.80
37158;DHT22;23050;51.776;22.638;2022-08-03T09:06:22;33.40;2.70
37158;DHT22;23050;51.776;22.638;2022-08-03T09:08:48;33.70;2.10
37158;DHT22;23050;51.776;22.638;2022-08-03T09:11:14;33.80;1.00
37158;DHT22;23050;51.776;22.638;2022-08-03T09:13:39;33.80;1.50
37158;DHT22;23050;51.776;22.638;2022-08-03T09:16:20;34.50;1.00
37158;DHT22;23050;51.776;22.638;2022-08-03T09:18:53;35.40;1.00
37158;DHT22;23050;51.776;22.638;2022-08-03T09:21:26;36.40;1.00
37158;DHT22;23050;51.776;22.638;2022-08-03T09:23:55;36.70;1.00
37158;DHT22;23050;51.776;22.638;2022-08-03T09:26:29;36.80;1.00
37158;DHT22;23050;51.776;22.638;2022-08-03T09:29:04;36.20;1.00
37158;DHT22;23050;51.776;22.638;2022-08-03T09:31:38;35.70;1.00
37158;DHT22;23050;51.776;22.638;2022-08-03T09:34:05;34.60;1.00
37158;DHT22;23050;51.776;22.638;2022-08-03T09:36:47;34.40;1.00
37158;DHT22;23050;51.776;22.638;2022-08-03T09:39:15;35.20;1.00
37158;DHT22;23050;51.776;22.638;2022-08-03T09:41:44;36.10;1.00
37158;DHT22;23050;51.776;22.638;2022-08-03T09:44:10;36.10;1.00
37158;DHT22;23050;51.776;22.638;2022-08-03T09:46:54;35.50;1.00
37158;DHT22;23050;51.776;22.638;2022-08-03T09:49:21;34.70;1.00
37158;DHT22;23050;51.776;22.638;2022-08-03T09:51:47;34.40;1.00
37158;DHT22;23050;51.776;22.638;2022-08-03T09:54:27;33.60;1.00
37158;DHT22;23050;51.776;22.638;2022-08-03T09:56:53;32.90;1.10
37158;DHT22;23050;51.776;22.638;2022-08-03T09:59:27;32.30;2.10
37158;DHT22;23050;51.776;22.638;2022-08-03T10:01:54;32.00;2.40
37158;DHT22;23050;51.776;22.638;2022-08-03T10:04:20;31.80;2.40
37158;DHT22;23050;51.776;22.638;2022-08-03T10:07:05;31.70;2.70
37158;DHT22;23050;51.776;22.638;2022-08-03T10:09:32;31.90;4.90
37158;DHT22;23050;51.776;22.638;2022-08-03T10:12:06;31.90;4.10
37158;DHT22;23050;51.776;22.638;2022-08-03T10:14:32;31.90;4.20
37158;DHT22;23050;51.776;22.638;2022-08-03T10:17:00;32.30;4.30
37158;DHT22;23050;51.776;22.638;2022-08-03T10:19:26;32.80;3.90
37158;DHT22;23050;51.776;22.638;2022-08-03T10:21:56;33.50;1.50
37158;DHT22;23050;51.776;22.638;2022-08-03T10:24:27;34.20;1.40
37158;DHT22;23050;51.776;22.638;2022-08-03T10:27:00;34.50;1.00
37158;DHT22;23050;51.776;22.638;2022-08-03T10:29:27;34.20;1.50
37158;DHT22;23050;51.776;22.638;2022-08-03T10:31:57;33.80;1.00
37158;DHT22;23050;51.776;22.638;2022-08-03T10:34:25;34.60;1.00
37158;DHT22;23050;51.776;22.638;2022-08-03T10:36:54;35.10;1.00
37158;DHT22;23050;51.776;22.638;2022-08-03T10:39:23;34.60;1.00
37158;DHT22;23050;51.776;22.638;2022-08-03T10:41:52;33.90;1.00
37158;DHT22;23050;51.776;22.638;2022-08-03T10:44:23;34.40;1.00
37158;DHT22;23050;51.776;22.638;2022-08-03T10:46:50;34.40;1.00
37158;DHT22;23050;51.776;22.638;2022-08-03T10:49:19;34.50;1.00
37158;DHT22;23050;51.776;22.638;2022-08-03T10:51:46;34.30;1.00
37158;DHT22;23050;51.776;22.638;2022-08-03T10:54:48;33.20;1.00
37158;DHT22;23050;51.776;22.638;2022-08-03T10:57:52;31.90;1.60
37158;DHT22;23050;51.776;22.638;2022-08-03T11:03:03;32.50;1.10
37158;DHT22;23050;51.776;22.638;2022-08-03T11:05:33;32.90;2.10
37158;DHT22;23050;51.776;22.638;2022-08-03T11:10:44;33.20;1.00
37158;DHT22;23050;51.776;22.638;2022-08-03T11:13:14;33.80;1.90
37158;DHT22;23050;51.776;22.638;2022-08-03T11:15:43;34.20;1.00
37158;DHT22;23050;51.776;22.638;2022-08-03T11:18:10;34.10;1.10
37158;DHT22;23050;51.776;22.638;2022-08-03T11:20:52;34.70;1.00
37158;DHT22;23050;51.776;22.638;2022-08-03T11:23:39;34.80;1.30
37158;DHT22;23050;51.776;22.638;2022-08-03T11:26:18;35.00;1.00
37158;DHT22;23050;51.776;22.638;2022-08-03T11:28:47;34.70;1.00
37158;DHT22;23050;51.776;22.638;2022-08-03T11:34:04;33.20;1.00
37158;DHT22;23050;51.776;22.638;2022-08-03T11:36:32;32.70;1.20
37158;DHT22;23050;51.776;22.638;2022-08-03T11:39:16;32.90;2.90
37158;DHT22;23050;51.776;22.638;2022-08-03T11:41:41;33.50;1.00
37158;DHT22;23050;51.776;22.638;2022-08-03T11:44:07;33.50;1.00
37158;DHT22;23050;51.776;22.638;2022-08-03T11:46:36;33.20;1.00
37158;DHT22;23050;51.776;22.638;2022-08-03T11:49:05;32.90;1.00
37158;DHT22;23050;51.776;22.638;2022-08-03T11:51:32;32.50;1.00
37158;DHT22;23050;51.776;22.638;2022-08-03T11:54:03;32.20;1.00
37158;DHT22;23050;51.776;22.638;2022-08-03T11:56:44;31.70;1.20
37158;DHT22;23050;51.776;22.638;2022-08-03T11:59:09;31.10;1.80
37158;DHT22;23050;51.776;22.638;2022-08-03T12:01:35;30.80;2.40
37158;DHT22;23050;51.776;22.638;2022-08-03T12:04:02;30.50;4.50
37158;DHT22;23050;51.776;22.638;2022-08-03T12:06:29;30.30;3.50
37158;DHT22;23050;51.776;22.638;2022-08-03T12:08:54;30.10;4.30
37158;DHT22;23050;51.776;22.638;2022-08-03T12:11:20;30.00;2.80
37158;DHT22;23050;51.776;22.638;2022-08-03T12:13:49;30.00;5.00
37158;DHT22;23050;51.776;22.638;2022-08-03T12:16:23;30.10;6.20
37158;DHT22;23050;51.776;22.638;2022-08-03T12:18:58;30.70;4.20
37158;DHT22;23050;51.776;22.638;2022-08-03T12:21:24;31.00;3.80
37158;DHT22;23050;51.776;22.638;2022-08-03T12:23:54;31.70;4.30
37158;DHT22;23050;51.776;22.638;2022-08-03T12:26:20;32.20;1.00
37158;DHT22;23050;51.776;22.638;2022-08-03T12:28:47;31.60;1.00
37158;DHT22;23050;51.776;22.638;2022-08-03T12:31:13;30.70;1.00
37158;DHT22;23050;51.776;22.638;2022-08-03T12:34:00;30.20;2.40
37158;DHT22;23050;51.776;22.638;2022-08-03T12:36:27;29.80;2.30
37158;DHT22;23050;51.776;22.638;2022-08-03T12:38:55;29.80;2.70
37158;DHT22;23050;51.776;22.638;2022-08-03T12:41:28;29.70;3.30
37158;DHT22;23050;51.776;22.638;2022-08-03T12:43:53;29.80;5.60
37158;DHT22;23050;51.776;22.638;2022-08-03T12:46:20;30.30;3.00
37158;DHT22;23050;51.776;22.638;2022-08-03T12:49:07;30.30;2.90
37158;DHT22;23050;51.776;22.638;2022-08-03T12:51:35;30.70;4.30
37158;DHT22;23050;51.776;22.638;2022-08-03T12:54:02;31.00;2.90
37158;DHT22;23050;51.776;22.638;2022-08-03T12:56:28;31.40;1.80
37158;DHT22;23050;51.776;22.638;2022-08-03T12:58:54;32.00;1.50
37158;DHT22;23050;51.776;22.638;2022-08-03T13:01:20;32.30;1.00
37158;DHT22;23050;51.776;22.638;2022-08-03T13:03:50;33.10;1.30
37158;DHT22;23050;51.776;22.638;2022-08-03T13:06:18;32.80;2.30
37158;DHT22;23050;51.776;22.638;2022-08-03T13:08:44;32.50;2.30
37158;DHT22;23050;51.776;22.638;2022-08-03T13:11:23;32.60;3.40
37158;DHT22;23050;51.776;22.638;2022-08-03T13:13:50;33.10;5.50
37158;DHT22;23050;51.776;22.638;2022-08-03T13:16:16;33.10;3.40
37158;DHT22;23050;51.776;22.638;2022-08-03T13:18:42;32.70;3.60
37158;DHT22;23050;51.776;22.638;2022-08-03T13:21:07;32.90;3.00
37158;DHT22;23050;51.776;22.638;2022-08-03T13:23:33;32.80;2.90
37158;DHT22;23050;51.776;22.638;2022-08-03T13:25:59;32.80;2.80
37158;DHT22;23050;51.776;22.638;2022-08-03T13:28:24;32.80;2.70
37158;DHT22;23050;51.776;22.638;2022-08-03T13:30:50;32.10;3.40
37158;DHT22;23050;51.776;22.638;2022-08-03T13:33:16;31.30;4.60
37158;DHT22;23050;51.776;22.638;2022-08-03T13:35:41;31.40;6.10
37158;DHT22;23050;51.776;22.638;2022-08-03T13:38:07;32.00;4.50
37158;DHT22;23050;51.776;22.638;2022-08-03T13:40:32;32.00;4.00
37158;DHT22;23050;51.776;22.638;2022-08-03T13:42:59;32.40;3.70
37158;DHT22;23050;51.776;22.638;2022-08-03T13:45:24;32.80;4.20
37158;DHT22;23050;51.776;22.638;2022-08-03T13:47:52;33.30;3.80
37158;DHT22;23050;51.776;22.638;2022-08-03T13:50:18;33.70;3.00
37158;DHT22;23050;51.776;22.638;2022-08-03T13:52:43;33.30;3.40
37158;DHT22;23050;51.776;22.638;2022-08-03T13:55:10;33.40;3.10
37158;DHT22;23050;51.776;22.638;2022-08-03T13:57:36;33.30;1.90
37158;DHT22;23050;51.776;22.638;2022-08-03T14:00:03;32.70;3.20
37158;DHT22;23050;51.776;22.638;2022-08-03T14:02:29;32.60;2.00
37158;DHT22;23050;51.776;22.638;2022-08-03T14:04:54;32.40;2.50
37158;DHT22;23050;51.776;22.638;2022-08-03T14:07:20;32.50;3.60
37158;DHT22;23050;51.776;22.638;2022-08-03T14:09:45;32.80;2.90
37158;DHT22;23050;51.776;22.638;2022-08-03T14:12:11;33.20;2.70
37158;DHT22;23050;51.776;22.638;2022-08-03T14:14:36;33.40;1.70
37158;DHT22;23050;51.776;22.638;2022-08-03T14:17:02;33.60;1.80
37158;DHT22;23050;51.776;22.638;2022-08-03T14:19:28;33.90;2.20
37158;DHT22;23050;51.776;22.638;2022-08-03T14:21:54;34.10;1.70
37158;DHT22;23050;51.776;22.638;2022-08-03T14:24:19;34.20;1.30
37158;DHT22;23050;51.776;22.638;2022-08-03T14:26:45;33.70;1.00
37158;DHT22;23050;51.776;22.638;2022-08-03T14:29:10;33.60;1.80
37158;DHT22;23050;51.776;22.638;2022-08-03T14:31:36;33.70;1.50
37158;DHT22;23050;51.776;22.638;2022-08-03T14:34:02;33.90;1.80
37158;DHT22;23050;51.776;22.638;2022-08-03T14:36:28;34.10;1.00
37158;DHT22;23050;51.776;22.638;2022-08-03T14:38:54;34.30;2.00
37158;DHT22;23050;51.776;22.638;2022-08-03T14:41:20;33.70;1.00
37158;DHT22;23050;51.776;22.638;2022-08-03T14:43:46;33.80;1.00
37158;DHT22;23050;51.776;22.638;2022-08-03T14:46:12;33.90;1.00
37158;DHT22;23050;51.776;22.638;2022-08-03T14:48:37;33.00;1.00
37158;DHT22;23050;51.776;22.638;2022-08-03T14:51:03;32.90;1.90
37158;DHT22;23050;51.776;22.638;2022-08-03T14:53:29;33.00;1.70
37158;DHT22;23050;51.776;22.638;2022-08-03T14:55:55;33.50;1.50
37158;DHT22;23050;51.776;22.638;2022-08-03T14:58:22;33.70;1.00
37158;DHT22;23050;51.776;22.638;2022-08-03T15:00:50;33.70;1.00
37158;DHT22;23050;51.776;22.638;2022-08-03T15:03:17;33.30;1.00
37158;DHT22;23050;51.776;22.638;2022-08-03T15:05:45;32.80;1.00
37158;DHT22;23050;51.776;22.638;2022-08-03T15:08:11;33.00;1.70
37158;DHT22;23050;51.776;22.638;2022-08-03T15:10:36;33.00;2.30
37158;DHT22;23050;51.776;22.638;2022-08-03T15:13:02;33.20;1.60
37158;DHT22;23050;51.776;22.638;2022-08-03T15:15:27;33.10;1.00
37158;DHT22;23050;51.776;22.638;2022-08-03T15:17:53;33.20;1.00
37158;DHT22;23050;51.776;22.638;2022-08-03T15:20:19;32.70;1.20
37158;DHT22;23050;51.776;22.638;2022-08-03T15:22:45;32.70;1.60
37158;DHT22;23050;51.776;22.638;2022-08-03T15:25:10;32.70;2.60
37158;DHT22;23050;51.776;22.638;2022-08-03T15:27:37;32.50;1.50
37158;DHT22;23050;51.776;22.638;2022-08-03T15:30:03;32.10;2.00
37158;DHT22;23050;51.776;22.638;2022-08-03T15:32:31;32.20;2.30
37158;DHT22;23050;51.776;22.638;2022-08-03T15:34:57;32.20;3.20
37158;DHT22;23050;51.776;22.638;2022-08-03T15:37:23;32.20;2.40
37158;DHT22;23050;51.776;22.638;2022-08-03T15:39:50;31.80;1.40
37158;DHT22;23050;51.776;22.638;2022-08-03T15:42:15;31.60;3.00
37158;DHT22;23050;51.776;22.638;2022-08-03T15:44:41;31.20;2.50
37158;DHT22;23050;51.776;22.638;2022-08-03T15:47:06;31.20;4.10
37158;DHT22;23050;51.776;22.638;2022-08-03T15:49:32;31.20;4.50
37158;DHT22;23050;51.776;22.638;2022-08-03T15:51:58;31.10;4.70